sensor_id;sensor_type;location;lat;lon;timestamp;P1;durP1;ratioP1;P2;durP2;ratioP2
12129;SDS011;6128;59.340;18.040;2024-01-30T00:01:17;16.03;;;9.20;;
12129;SDS011;6128;59.340;18.040;2024-01-30T00:03:44;16.30;;;9.40;;
12129;SDS011;6128;59.340;18.040;2024-01-30T00:06:11;20.20;;;9.53;;
12129;SDS011;6128;59.340;18.040;2024-01-30T00:08:38;17.17;;;9.60;;
12129;SDS011;6128;59.340;18.040;2024-01-30T00:11:06;17.17;;;10.33;;
12129;SDS011;6128;59.340;18.040;2024-01-30T00:13:34;17.50;;;9.70;;
12129;SDS011;6128;59.340;18.040;2024-01-30T00:16:01;17.93;;;9.93;;
12129;SDS011;6128;59.340;18.040;2024-01-30T00:18:29;19.07;;;9.70;;
12129;SDS011;6128;59.340;18.040;2024-01-30T00:20:56;16.03;;;9.67;;
12129;SDS011;6128;59.340;18.040;2024-01-30T00:23:23;18.53;;;9.40;;
12129;SDS011;6128;59.340;18.040;2024-01-30T00:25:50;16.90;;;9.50;;
12129;SDS011;6128;59.340;18.040;2024-01-30T00:28:19;21.60;;;10.37;;
12129;SDS011;6128;59.340;18.040;2024-01-30T00:30:46;17.20;;;10.47;;
12129;SDS011;6128;59.340;18.040;2024-01-30T00:33:13;16.57;;;9.67;;
12129;SDS011;6128;59.340;18.040;2024-01-30T00:35:41;17.23;;;9.60;;
12129;SDS011;6128;59.340;18.040;2024-01-30T00:38:08;16.20;;;9.37;;
12129;SDS011;6128;59.340;18.040;2024-01-30T00:40:35;19.53;;;10.10;;
12129;SDS011;6128;59.340;18.040;2024-01-30T00:43:02;16.50;;;9.97;;
12129;SDS011;6128;59.340;18.040;2024-01-30T00:45:31;20.23;;;9.87;;
12129;SDS011;6128;59.340;18.040;2024-01-30T00:47:58;20.43;;;10.67;;
12129;SDS011;6128;59.340;18.040;2024-01-30T00:50:25;16.23;;;9.73;;
12129;SDS011;6128;59.340;18.040;2024-01-30T00:52:52;19.37;;;10.00;;
12129;SDS011;6128;59.340;18.040;2024-01-30T00:55:19;18.93;;;10.80;;
12129;SDS011;6128;59.340;18.040;2024-01-30T00:57:46;18.10;;;9.90;;
12129;SDS011;6128;59.340;18.040;2024-01-30T01:00:14;19.40;;;10.47;;
12129;SDS011;6128;59.340;18.040;2024-01-30T01:02:43;17.70;;;9.57;;
12129;SDS011;6128;59.340;18.040;2024-01-30T01:05:10;23.87;;;10.90;;
12129;SDS011;6128;59.340;18.040;2024-01-30T01:07:36;19.43;;;9.90;;
12129;SDS011;6128;59.340;18.040;2024-01-30T01:10:05;17.23;;;10.73;;
12129;SDS011;6128;59.340;18.040;2024-01-30T01:12:33;22.63;;;10.80;;
12129;SDS011;6128;59.340;18.040;2024-01-30T01:15:00;18.87;;;10.37;;
12129;SDS011;6128;59.340;18.040;2024-01-30T01:17:27;20.50;;;10.00;;
12129;SDS011;6128;59.340;18.040;2024-01-30T01:19:56;18.63;;;10.13;;
12129;SDS011;6128;59.340;18.040;2024-01-30T01:22:23;16.47;;;9.97;;
12129;SDS011;6128;59.340;18.040;2024-01-30T01:24:50;21.60;;;10.43;;
12129;SDS011;6128;59.340;18.040;2024-01-30T01:27:18;17.23;;;10.67;;
12129;SDS011;6128;59.340;18.040;2024-01-30T01:29:45;20.70;;;11.17;;
12129;SDS011;6128;59.340;18.040;2024-01-30T01:32:12;20.70;;;11.20;;
12129;SDS011;6128;59.340;18.040;2024-01-30T01:34:39;18.23;;;9.67;;
12129;SDS011;6128;59.340;18.040;2024-01-30T01:37:07;18.10;;;10.50;;
12129;SDS011;6128;59.340;18.040;2024-01-30T01:39:34;18.20;;;10.23;;
12129;SDS011;6128;59.340;18.040;2024-01-30T01:42:01;18.77;;;9.97;;
12129;SDS011;6128;59.340;18.040;2024-01-30T01:44:29;15.83;;;9.30;;
12129;SDS011;6128;59.340;18.040;2024-01-30T01:46:56;17.50;;;10.17;;
12129;SDS011;6128;59.340;18.040;2024-01-30T01:49:24;14.77;;;9.57;;
12129;SDS011;6128;59.340;18.040;2024-01-30T01:51:54;16.47;;;9.47;;
12129;SDS011;6128;59.340;18.040;2024-01-30T01:54:24;16.07;;;9.93;;
12129;SDS011;6128;59.340;18.040;2024-01-30T01:56:53;19.17;;;10.53;;
12129;SDS011;6128;59.340;18.040;2024-01-30T01:59:20;19.77;;;10.47;;
12129;SDS011;6128;59.340;18.040;2024-01-30T02:01:50;20.90;;;10.27;;
12129;SDS011;6128;59.340;18.040;2024-01-30T02:04:18;19.23;;;11.77;;
12129;SDS011;6128;59.340;18.040;2024-01-30T02:06:45;17.43;;;9.90;;
12129;SDS011;6128;59.340;18.040;2024-01-30T02:09:12;18.30;;;9.90;;
12129;SDS011;6128;59.340;18.040;2024-01-30T02:11:41;19.67;;;9.87;;
12129;SDS011;6128;59.340;18.040;2024-01-30T02:14:08;17.70;;;9.90;;
12129;SDS011;6128;59.340;18.040;2024-01-30T02:16:35;19.53;;;10.17;;
12129;SDS011;6128;59.340;18.040;2024-01-30T02:19:02;19.93;;;10.30;;
12129;SDS011;6128;59.340;18.040;2024-01-30T02:21:31;20.53;;;10.93;;
12129;SDS011;6128;59.340;18.040;2024-01-30T02:23:59;19.70;;;10.43;;
12129;SDS011;6128;59.340;18.040;2024-01-30T02:26:27;19.23;;;10.53;;
12129;SDS011;6128;59.340;18.040;2024-01-30T02:28:54;15.43;;;10.00;;
12129;SDS011;6128;59.340;18.040;2024-01-30T02:31:21;20.60;;;11.50;;
12129;SDS011;6128;59.340;18.040;2024-01-30T02:33:49;21.90;;;10.97;;
12129;SDS011;6128;59.340;18.040;2024-01-30T02:36:16;25.93;;;10.93;;
12129;SDS011;6128;59.340;18.040;2024-01-30T02:38:44;20.67;;;10.87;;
12129;SDS011;6128;59.340;18.040;2024-01-30T02:41:11;18.20;;;9.83;;
12129;SDS011;6128;59.340;18.040;2024-01-30T02:43:39;23.60;;;10.20;;
12129;SDS011;6128;59.340;18.040;2024-01-30T02:46:06;16.40;;;9.03;;
12129;SDS011;6128;59.340;18.040;2024-01-30T02:48:33;17.40;;;10.17;;
12129;SDS011;6128;59.340;18.040;2024-01-30T02:51:00;20.40;;;9.57;;
12129;SDS011;6128;59.340;18.040;2024-01-30T02:53:27;16.93;;;9.77;;
12129;SDS011;6128;59.340;18.040;2024-01-30T02:55:56;21.00;;;9.53;;
12129;SDS011;6128;59.340;18.040;2024-01-30T02:58:23;18.93;;;9.73;;
12129;SDS011;6128;59.340;18.040;2024-01-30T03:00:50;15.73;;;9.03;;
12129;SDS011;6128;59.340;18.040;2024-01-30T03:03:17;13.43;;;8.40;;
12129;SDS011;6128;59.340;18.040;2024-01-30T03:05:44;16.97;;;8.73;;
12129;SDS011;6128;59.340;18.040;2024-01-30T03:08:11;15.47;;;7.97;;
12129;SDS011;6128;59.340;18.040;2024-01-30T03:10:38;13.50;;;8.90;;
12129;SDS011;6128;59.340;18.040;2024-01-30T03:13:07;22.10;;;8.63;;
12129;SDS011;6128;59.340;18.040;2024-01-30T03:15:34;17.90;;;8.93;;
12129;SDS011;6128;59.340;18.040;2024-01-30T03:18:01;21.13;;;8.77;;
12129;SDS011;6128;59.340;18.040;2024-01-30T03:20:28;19.70;;;8.30;;
12129;SDS011;6128;59.340;18.040;2024-01-30T03:22:56;12.97;;;8.23;;
12129;SDS011;6128;59.340;18.040;2024-01-30T03:25:26;14.00;;;8.40;;
12129;SDS011;6128;59.340;18.040;2024-01-30T03:27:53;12.20;;;7.20;;
12129;SDS011;6128;59.340;18.040;2024-01-30T03:30:21;14.23;;;7.90;;
12129;SDS011;6128;59.340;18.040;2024-01-30T03:32:48;13.10;;;8.53;;
12129;SDS011;6128;59.340;18.040;2024-01-30T03:35:15;16.70;;;8.23;;
12129;SDS011;6128;59.340;18.040;2024-01-30T03:37:42;11.17;;;7.77;;
12129;SDS011;6128;59.340;18.040;2024-01-30T03:40:10;13.50;;;7.37;;
12129;SDS011;6128;59.340;18.040;2024-01-30T03:42:37;17.83;;;8.70;;
12129;SDS011;6128;59.340;18.040;2024-01-30T03:45:05;16.87;;;8.63;;
12129;SDS011;6128;59.340;18.040;2024-01-30T03:47:34;15.03;;;7.97;;
12129;SDS011;6128;59.340;18.040;2024-01-30T03:50:01;11.30;;;7.97;;
12129;SDS011;6128;59.340;18.040;2024-01-30T03:52:30;11.57;;;8.40;;
12129;SDS011;6128;59.340;18.040;2024-01-30T03:54:57;14.87;;;8.00;;
12129;SDS011;6128;59.340;18.040;2024-01-30T03:57:24;12.73;;;8.93;;
12129;SDS011;6128;59.340;18.040;2024-01-30T03:59:51;12.50;;;8.50;;
12129;SDS011;6128;59.340;18.040;2024-01-30T04:02:18;10.40;;;8.50;;
12129;SDS011;6128;59.340;18.040;2024-01-30T04:04:47;16.10;;;8.33;;
12129;SDS011;6128;59.340;18.040;2024-01-30T04:07:14;16.30;;;8.60;;
12129;SDS011;6128;59.340;18.040;2024-01-30T04:09:41;17.60;;;9.03;;
12129;SDS011;6128;59.340;18.040;2024-01-30T04:12:08;15.73;;;9.10;;
12129;SDS011;6128;59.340;18.040;2024-01-30T04:14:35;18.83;;;9.57;;
12129;SDS011;6128;59.340;18.040;2024-01-30T04:17:04;17.57;;;9.67;;
12129;SDS011;6128;59.340;18.040;2024-01-30T04:19:31;26.53;;;8.90;;
12129;SDS011;6128;59.340;18.040;2024-01-30T04:21:59;17.33;;;9.20;;
12129;SDS011;6128;59.340;18.040;2024-01-30T04:24:26;17.60;;;8.93;;
12129;SDS011;6128;59.340;18.040;2024-01-30T04:26:53;19.50;;;9.37;;
12129;SDS011;6128;59.340;18.040;2024-01-30T04:29:20;17.63;;;9.37;;
12129;SDS011;6128;59.340;18.040;2024-01-30T04:31:48;15.10;;;9.07;;
12129;SDS011;6128;59.340;18.040;2024-01-30T04:34:15;15.47;;;8.27;;
12129;SDS011;6128;59.340;18.040;2024-01-30T04:36:43;15.07;;;9.40;;
12129;SDS011;6128;59.340;18.040;2024-01-30T04:39:12;13.27;;;9.23;;
12129;SDS011;6128;59.340;18.040;2024-01-30T04:41:39;18.63;;;8.97;;
12129;SDS011;6128;59.340;18.040;2024-01-30T04:44:06;10.03;;;8.07;;
12129;SDS011;6128;59.340;18.040;2024-01-30T04:46:33;20.67;;;8.47;;
12129;SDS011;6128;59.340;18.040;2024-01-30T04:49:00;12.70;;;8.20;;
12129;SDS011;6128;59.340;18.040;2024-01-30T04:51:28;11.07;;;7.77;;
12129;SDS011;6128;59.340;18.040;2024-01-30T04:53:55;16.80;;;7.90;;
12129;SDS011;6128;59.340;18.040;2024-01-30T04:56:24;8.10;;;7.30;;
12129;SDS011;6128;59.340;18.040;2024-01-30T04:58:51;7.60;;;6.63;;
12129;SDS011;6128;59.340;18.040;2024-01-30T05:01:18;7.23;;;6.53;;
12129;SDS011;6128;59.340;18.040;2024-01-30T05:03:45;7.00;;;6.30;;
12129;SDS011;6128;59.340;18.040;2024-01-30T05:06:12;7.37;;;6.60;;
12129;SDS011;6128;59.340;18.040;2024-01-30T05:08:39;7.47;;;6.70;;
12129;SDS011;6128;59.340;18.040;2024-01-30T05:11:06;8.50;;;6.40;;
12129;SDS011;6128;59.340;18.040;2024-01-30T05:13:35;7.40;;;6.70;;
12129;SDS011;6128;59.340;18.040;2024-01-30T05:16:02;7.87;;;7.03;;
12129;SDS011;6128;59.340;18.040;2024-01-30T05:18:29;7.63;;;6.70;;
12129;SDS011;6128;59.340;18.040;2024-01-30T05:20:56;7.90;;;7.10;;
12129;SDS011;6128;59.340;18.040;2024-01-30T05:23:23;8.57;;;7.23;;
12129;SDS011;6128;59.340;18.040;2024-01-30T05:25:50;8.30;;;6.93;;
12129;SDS011;6128;59.340;18.040;2024-01-30T05:28:17;7.90;;;7.10;;
12129;SDS011;6128;59.340;18.040;2024-01-30T05:30:46;8.77;;;7.00;;
12129;SDS011;6128;59.340;18.040;2024-01-30T05:33:13;9.57;;;8.00;;
12129;SDS011;6128;59.340;18.040;2024-01-30T05:35:40;9.77;;;7.43;;
12129;SDS011;6128;59.340;18.040;2024-01-30T05:38:07;9.80;;;8.43;;
12129;SDS011;6128;59.340;18.040;2024-01-30T05:40:34;10.50;;;8.47;;
12129;SDS011;6128;59.340;18.040;2024-01-30T05:43:01;10.43;;;8.10;;
12129;SDS011;6128;59.340;18.040;2024-01-30T05:45:29;10.10;;;8.43;;
12129;SDS011;6128;59.340;18.040;2024-01-30T05:47:57;11.77;;;8.53;;
12129;SDS011;6128;59.340;18.040;2024-01-30T05:50:24;10.37;;;8.47;;
12129;SDS011;6128;59.340;18.040;2024-01-30T05:52:52;9.83;;;8.27;;
12129;SDS011;6128;59.340;18.040;2024-01-30T05:55:19;9.77;;;8.03;;
12129;SDS011;6128;59.340;18.040;2024-01-30T05:57:46;10.63;;;8.23;;
12129;SDS011;6128;59.340;18.040;2024-01-30T06:00:13;9.80;;;8.40;;
12129;SDS011;6128;59.340;18.040;2024-01-30T06:02:41;10.17;;;7.83;;
12129;SDS011;6128;59.340;18.040;2024-01-30T06:05:10;9.20;;;7.43;;
12129;SDS011;6128;59.340;18.040;2024-01-30T06:07:37;8.47;;;7.03;;
12129;SDS011;6128;59.340;18.040;2024-01-30T06:10:04;10.20;;;7.93;;
12129;SDS011;6128;59.340;18.040;2024-01-30T06:12:33;8.20;;;7.37;;
12129;SDS011;6128;59.340;18.040;2024-01-30T06:15:01;7.67;;;6.53;;
12129;SDS011;6128;59.340;18.040;2024-01-30T06:17:28;8.77;;;7.40;;
12129;SDS011;6128;59.340;18.040;2024-01-30T06:19:55;8.80;;;6.77;;
12129;SDS011;6128;59.340;18.040;2024-01-30T06:22:23;7.13;;;6.37;;
12129;SDS011;6128;59.340;18.040;2024-01-30T06:24:50;7.00;;;5.83;;
12129;SDS011;6128;59.340;18.040;2024-01-30T06:27:17;6.83;;;6.13;;
12129;SDS011;6128;59.340;18.040;2024-01-30T06:29:45;7.40;;;5.93;;
12129;SDS011;6128;59.340;18.040;2024-01-30T06:32:12;6.37;;;5.53;;
12129;SDS011;6128;59.340;18.040;2024-01-30T06:34:39;6.20;;;5.13;;
12129;SDS011;6128;59.340;18.040;2024-01-30T06:37:09;6.87;;;5.47;;
12129;SDS011;6128;59.340;18.040;2024-01-30T06:39:37;6.90;;;5.40;;
12129;SDS011;6128;59.340;18.040;2024-01-30T06:42:04;5.63;;;5.10;;
12129;SDS011;6128;59.340;18.040;2024-01-30T06:44:31;7.43;;;5.37;;
12129;SDS011;6128;59.340;18.040;2024-01-30T06:46:58;6.87;;;5.20;;
12129;SDS011;6128;59.340;18.040;2024-01-30T06:49:24;7.47;;;6.00;;
12129;SDS011;6128;59.340;18.040;2024-01-30T06:51:51;7.20;;;5.70;;
12129;SDS011;6128;59.340;18.040;2024-01-30T06:54:19;7.37;;;5.47;;
12129;SDS011;6128;59.340;18.040;2024-01-30T06:56:47;7.77;;;5.93;;
12129;SDS011;6128;59.340;18.040;2024-01-30T06:59:14;7.67;;;5.73;;
12129;SDS011;6128;59.340;18.040;2024-01-30T07:01:41;7.53;;;5.53;;
12129;SDS011;6128;59.340;18.040;2024-01-30T07:04:08;8.90;;;6.00;;
12129;SDS011;6128;59.340;18.040;2024-01-30T07:06:35;9.40;;;5.50;;
12129;SDS011;6128;59.340;18.040;2024-01-30T07:09:03;8.13;;;5.73;;
12129;SDS011;6128;59.340;18.040;2024-01-30T07:11:30;10.30;;;6.03;;
12129;SDS011;6128;59.340;18.040;2024-01-30T07:13:58;9.47;;;6.37;;
12129;SDS011;6128;59.340;18.040;2024-01-30T07:16:28;8.47;;;6.37;;
12129;SDS011;6128;59.340;18.040;2024-01-30T07:18:55;10.23;;;6.63;;
12129;SDS011;6128;59.340;18.040;2024-01-30T07:21:23;9.43;;;6.93;;
12129;SDS011;6128;59.340;18.040;2024-01-30T07:23:53;9.53;;;6.73;;
12129;SDS011;6128;59.340;18.040;2024-01-30T07:26:20;8.20;;;6.63;;
12129;SDS011;6128;59.340;18.040;2024-01-30T07:28:47;8.87;;;7.00;;
12129;SDS011;6128;59.340;18.040;2024-01-30T07:31:16;10.33;;;6.67;;
12129;SDS011;6128;59.340;18.040;2024-01-30T07:33:45;7.50;;;6.67;;
12129;SDS011;6128;59.340;18.040;2024-01-30T07:36:14;10.77;;;6.93;;
12129;SDS011;6128;59.340;18.040;2024-01-30T07:38:41;10.30;;;6.87;;
12129;SDS011;6128;59.340;18.040;2024-01-30T07:41:08;10.60;;;7.90;;
12129;SDS011;6128;59.340;18.040;2024-01-30T07:43:35;9.50;;;7.37;;
12129;SDS011;6128;59.340;18.040;2024-01-30T07:46:05;8.50;;;7.37;;
12129;SDS011;6128;59.340;18.040;2024-01-30T07:48:33;8.03;;;6.53;;
12129;SDS011;6128;59.340;18.040;2024-01-30T07:51:00;7.70;;;5.93;;
12129;SDS011;6128;59.340;18.040;2024-01-30T07:53:29;9.47;;;6.60;;
12129;SDS011;6128;59.340;18.040;2024-01-30T07:55:56;9.63;;;5.87;;
12129;SDS011;6128;59.340;18.040;2024-01-30T07:58:23;8.97;;;5.63;;
12129;SDS011;6128;59.340;18.040;2024-01-30T08:00:52;11.57;;;7.13;;
12129;SDS011;6128;59.340;18.040;2024-01-30T08:03:19;11.13;;;6.20;;
12129;SDS011;6128;59.340;18.040;2024-01-30T08:05:47;9.30;;;6.10;;
12129;SDS011;6128;59.340;18.040;2024-01-30T08:08:14;10.43;;;6.37;;
12129;SDS011;6128;59.340;18.040;2024-01-30T08:10:41;9.90;;;6.70;;
12129;SDS011;6128;59.340;18.040;2024-01-30T08:13:08;7.57;;;6.03;;
12129;SDS011;6128;59.340;18.040;2024-01-30T08:15:36;11.10;;;6.70;;
12129;SDS011;6128;59.340;18.040;2024-01-30T08:18:03;8.47;;;6.57;;
12129;SDS011;6128;59.340;18.040;2024-01-30T08:20:32;8.50;;;6.20;;
12129;SDS011;6128;59.340;18.040;2024-01-30T08:23:00;11.03;;;6.53;;
12129;SDS011;6128;59.340;18.040;2024-01-30T08:25:27;8.93;;;6.20;;
12129;SDS011;6128;59.340;18.040;2024-01-30T08:27:55;10.17;;;7.00;;
12129;SDS011;6128;59.340;18.040;2024-01-30T08:30:22;7.87;;;5.77;;
12129;SDS011;6128;59.340;18.040;2024-01-30T08:32:49;8.63;;;5.97;;
12129;SDS011;6128;59.340;18.040;2024-01-30T08:35:16;9.83;;;6.87;;
12129;SDS011;6128;59.340;18.040;2024-01-30T08:37:43;8.60;;;7.20;;
12129;SDS011;6128;59.340;18.040;2024-01-30T08:40:12;8.53;;;6.27;;
12129;SDS011;6128;59.340;18.040;2024-01-30T08:42:39;8.70;;;5.83;;
12129;SDS011;6128;59.340;18.040;2024-01-30T08:45:06;8.93;;;6.77;;
12129;SDS011;6128;59.340;18.040;2024-01-30T08:47:34;7.23;;;5.57;;
12129;SDS011;6128;59.340;18.040;2024-01-30T08:50:01;7.70;;;5.47;;
12129;SDS011;6128;59.340;18.040;2024-01-30T08:52:29;7.20;;;5.90;;
12129;SDS011;6128;59.340;18.040;2024-01-30T08:54:56;8.77;;;6.73;;
12129;SDS011;6128;59.340;18.040;2024-01-30T08:57:24;8.30;;;6.00;;
12129;SDS011;6128;59.340;18.040;2024-01-30T08:59:53;11.33;;;6.37;;
12129;SDS011;6128;59.340;18.040;2024-01-30T09:02:20;9.77;;;6.53;;
12129;SDS011;6128;59.340;18.040;2024-01-30T09:04:47;9.63;;;6.63;;
12129;SDS011;6128;59.340;18.040;2024-01-30T09:07:14;9.13;;;6.53;;
12129;SDS011;6128;59.340;18.040;2024-01-30T09:09:41;7.93;;;6.67;;
12129;SDS011;6128;59.340;18.040;2024-01-30T09:12:08;10.67;;;6.60;;
12129;SDS011;6128;59.340;18.040;2024-01-30T09:14:38;9.77;;;6.63;;
12129;SDS011;6128;59.340;18.040;2024-01-30T09:17:05;8.70;;;6.80;;
12129;SDS011;6128;59.340;18.040;2024-01-30T09:19:33;7.90;;;5.97;;
12129;SDS011;6128;59.340;18.040;2024-01-30T09:22:00;8.67;;;6.63;;
12129;SDS011;6128;59.340;18.040;2024-01-30T09:24:27;7.77;;;6.20;;
12129;SDS011;6128;59.340;18.040;2024-01-30T09:26:54;7.60;;;6.23;;
12129;SDS011;6128;59.340;18.040;2024-01-30T09:29:21;7.67;;;6.43;;
12129;SDS011;6128;59.340;18.040;2024-01-30T09:31:49;5.97;;;5.37;;
12129;SDS011;6128;59.340;18.040;2024-01-30T09:34:16;7.80;;;5.87;;
12129;SDS011;6128;59.340;18.040;2024-01-30T09:36:43;6.87;;;5.93;;
12129;SDS011;6128;59.340;18.040;2024-01-30T09:39:10;7.50;;;5.73;;
12129;SDS011;6128;59.340;18.040;2024-01-30T09:41:38;6.83;;;5.73;;
12129;SDS011;6128;59.340;18.040;2024-01-30T09:44:11;8.20;;;5.83;;
12129;SDS011;6128;59.340;18.040;2024-01-30T09:46:39;6.77;;;5.33;;
12129;SDS011;6128;59.340;18.040;2024-01-30T09:49:08;7.97;;;6.30;;
12129;SDS011;6128;59.340;18.040;2024-01-30T09:51:36;6.93;;;6.07;;
12129;SDS011;6128;59.340;18.040;2024-01-30T09:54:03;6.40;;;5.57;;
12129;SDS011;6128;59.340;18.040;2024-01-30T09:56:30;6.53;;;5.43;;
12129;SDS011;6128;59.340;18.040;2024-01-30T09:58:58;7.13;;;6.43;;
12129;SDS011;6128;59.340;18.040;2024-01-30T10:01:25;7.57;;;6.17;;
12129;SDS011;6128;59.340;18.040;2024-01-30T10:03:53;9.47;;;6.30;;
12129;SDS011;6128;59.340;18.040;2024-01-30T10:06:23;8.27;;;6.43;;
12129;SDS011;6128;59.340;18.040;2024-01-30T10:08:51;8.33;;;6.27;;
12129;SDS011;6128;59.340;18.040;2024-01-30T10:11:19;7.63;;;6.13;;
12129;SDS011;6128;59.340;18.040;2024-01-30T10:13:46;10.60;;;7.20;;
12129;SDS011;6128;59.340;18.040;2024-01-30T10:16:13;9.27;;;6.80;;
12129;SDS011;6128;59.340;18.040;2024-01-30T10:18:42;8.53;;;6.97;;
12129;SDS011;6128;59.340;18.040;2024-01-30T10:21:09;9.87;;;7.03;;
12129;SDS011;6128;59.340;18.040;2024-01-30T10:23:37;8.60;;;6.47;;
12129;SDS011;6128;59.340;18.040;2024-01-30T10:26:05;9.80;;;7.40;;
12129;SDS011;6128;59.340;18.040;2024-01-30T10:28:34;9.27;;;7.13;;
12129;SDS011;6128;59.340;18.040;2024-01-30T10:31:01;10.57;;;7.10;;
12129;SDS011;6128;59.340;18.040;2024-01-30T10:33:28;10.13;;;7.63;;
12129;SDS011;6128;59.340;18.040;2024-01-30T10:35:56;9.60;;;7.40;;
12129;SDS011;6128;59.340;18.040;2024-01-30T10:38:27;10.43;;;7.57;;
12129;SDS011;6128;59.340;18.040;2024-01-30T10:40:58;9.97;;;7.20;;
12129;SDS011;6128;59.340;18.040;2024-01-30T10:43:28;9.33;;;7.10;;
12129;SDS011;6128;59.340;18.040;2024-01-30T10:46:01;9.53;;;7.40;;
12129;SDS011;6128;59.340;18.040;2024-01-30T10:48:40;10.87;;;7.03;;
12129;SDS011;6128;59.340;18.040;2024-01-30T10:51:09;9.30;;;7.27;;
12129;SDS011;6128;59.340;18.040;2024-01-30T10:53:38;11.60;;;7.57;;
12129;SDS011;6128;59.340;18.040;2024-01-30T10:56:08;10.47;;;8.27;;
12129;SDS011;6128;59.340;18.040;2024-01-30T10:58:37;11.30;;;7.73;;
12129;SDS011;6128;59.340;18.040;2024-01-30T11:01:04;9.23;;;7.73;;
12129;SDS011;6128;59.340;18.040;2024-01-30T11:03:32;10.07;;;7.57;;
12129;SDS011;6128;59.340;18.040;2024-01-30T11:06:02;11.13;;;7.80;;
12129;SDS011;6128;59.340;18.040;2024-01-30T11:08:31;9.23;;;7.60;;
12129;SDS011;6128;59.340;18.040;2024-01-30T11:10:59;9.07;;;7.10;;
12129;SDS011;6128;59.340;18.040;2024-01-30T11:13:30;10.20;;;8.30;;
12129;SDS011;6128;59.340;18.040;2024-01-30T11:16:00;10.50;;;8.77;;
12129;SDS011;6128;59.340;18.040;2024-01-30T11:18:28;10.40;;;8.30;;
12129;SDS011;6128;59.340;18.040;2024-01-30T11:20:56;12.80;;;8.23;;
12129;SDS011;6128;59.340;18.040;2024-01-30T11:23:26;10.73;;;8.10;;
12129;SDS011;6128;59.340;18.040;2024-01-30T11:25:54;11.80;;;7.93;;
12129;SDS011;6128;59.340;18.040;2024-01-30T11:28:22;10.87;;;8.40;;
12129;SDS011;6128;59.340;18.040;2024-01-30T11:30:51;9.37;;;7.60;;
12129;SDS011;6128;59.340;18.040;2024-01-30T11:33:29;10.13;;;8.40;;
12129;SDS011;6128;59.340;18.040;2024-01-30T11:35:57;9.90;;;7.93;;
12129;SDS011;6128;59.340;18.040;2024-01-30T11:38:26;11.37;;;8.73;;
12129;SDS011;6128;59.340;18.040;2024-01-30T11:40:54;12.40;;;8.57;;
12129;SDS011;6128;59.340;18.040;2024-01-30T11:43:22;10.40;;;8.23;;
12129;SDS011;6128;59.340;18.040;2024-01-30T11:45:50;10.57;;;8.37;;
12129;SDS011;6128;59.340;18.040;2024-01-30T11:48:19;13.10;;;8.20;;
12129;SDS011;6128;59.340;18.040;2024-01-30T11:50:46;10.93;;;8.27;;
12129;SDS011;6128;59.340;18.040;2024-01-30T11:53:13;9.53;;;7.97;;
12129;SDS011;6128;59.340;18.040;2024-01-30T11:55:41;11.57;;;8.30;;
12129;SDS011;6128;59.340;18.040;2024-01-30T11:58:15;10.80;;;8.43;;
12129;SDS011;6128;59.340;18.040;2024-01-30T12:00:42;13.10;;;8.20;;
12129;SDS011;6128;59.340;18.040;2024-01-30T12:03:11;10.30;;;8.60;;
12129;SDS011;6128;59.340;18.040;2024-01-30T12:05:38;11.67;;;8.90;;
12129;SDS011;6128;59.340;18.040;2024-01-30T12:08:08;11.10;;;8.97;;
12129;SDS011;6128;59.340;18.040;2024-01-30T12:10:41;10.00;;;8.37;;
12129;SDS011;6128;59.340;18.040;2024-01-30T12:13:08;13.13;;;9.50;;
12129;SDS011;6128;59.340;18.040;2024-01-30T12:15:35;11.40;;;8.17;;
12129;SDS011;6128;59.340;18.040;2024-01-30T12:18:05;11.57;;;9.10;;
12129;SDS011;6128;59.340;18.040;2024-01-30T12:20:34;12.10;;;9.00;;
12129;SDS011;6128;59.340;18.040;2024-01-30T12:23:01;9.93;;;8.37;;
12129;SDS011;6128;59.340;18.040;2024-01-30T12:25:29;11.20;;;9.30;;
12129;SDS011;6128;59.340;18.040;2024-01-30T12:27:57;11.50;;;8.63;;
12129;SDS011;6128;59.340;18.040;2024-01-30T12:30:24;10.53;;;8.63;;
12129;SDS011;6128;59.340;18.040;2024-01-30T12:32:51;10.60;;;7.97;;
12129;SDS011;6128;59.340;18.040;2024-01-30T12:35:19;10.10;;;8.17;;
12129;SDS011;6128;59.340;18.040;2024-01-30T12:37:48;9.93;;;8.07;;
12129;SDS011;6128;59.340;18.040;2024-01-30T12:40:16;9.47;;;8.47;;
12129;SDS011;6128;59.340;18.040;2024-01-30T12:42:45;8.97;;;8.07;;
12129;SDS011;6128;59.340;18.040;2024-01-30T12:45:14;9.20;;;7.80;;
12129;SDS011;6128;59.340;18.040;2024-01-30T12:47:45;8.87;;;7.47;;
12129;SDS011;6128;59.340;18.040;2024-01-30T12:50:12;11.37;;;7.80;;
12129;SDS011;6128;59.340;18.040;2024-01-30T12:52:40;8.60;;;7.70;;
12129;SDS011;6128;59.340;18.040;2024-01-30T12:55:09;10.33;;;8.13;;
12129;SDS011;6128;59.340;18.040;2024-01-30T12:57:37;8.40;;;7.40;;
12129;SDS011;6128;59.340;18.040;2024-01-30T13:00:05;10.03;;;8.50;;
12129;SDS011;6128;59.340;18.040;2024-01-30T13:02:33;9.63;;;7.67;;
12129;SDS011;6128;59.340;18.040;2024-01-30T13:05:02;10.70;;;8.50;;
12129;SDS011;6128;59.340;18.040;2024-01-30T13:07:29;9.80;;;8.27;;
12129;SDS011;6128;59.340;18.040;2024-01-30T13:09:56;9.77;;;8.27;;
12129;SDS011;6128;59.340;18.040;2024-01-30T13:12:29;8.70;;;7.50;;
12129;SDS011;6128;59.340;18.040;2024-01-30T13:14:57;8.07;;;7.27;;
12129;SDS011;6128;59.340;18.040;2024-01-30T13:17:26;7.80;;;7.10;;
12129;SDS011;6128;59.340;18.040;2024-01-30T13:19:53;7.77;;;7.07;;
12129;SDS011;6128;59.340;18.040;2024-01-30T13:22:20;8.20;;;7.30;;
12129;SDS011;6128;59.340;18.040;2024-01-30T13:24:47;8.80;;;7.67;;
12129;SDS011;6128;59.340;18.040;2024-01-30T13:27:14;9.43;;;7.33;;
12129;SDS011;6128;59.340;18.040;2024-01-30T13:29:43;9.27;;;8.10;;
12129;SDS011;6128;59.340;18.040;2024-01-30T13:32:10;9.53;;;8.23;;
12129;SDS011;6128;59.340;18.040;2024-01-30T13:34:37;8.77;;;7.83;;
12129;SDS011;6128;59.340;18.040;2024-01-30T13:37:05;8.50;;;7.60;;
12129;SDS011;6128;59.340;18.040;2024-01-30T13:39:32;8.73;;;7.80;;
12129;SDS011;6128;59.340;18.040;2024-01-30T13:41:59;8.43;;;7.10;;
12129;SDS011;6128;59.340;18.040;2024-01-30T13:44:26;8.17;;;7.20;;
12129;SDS011;6128;59.340;18.040;2024-01-30T13:46:55;7.83;;;6.90;;
12129;SDS011;6128;59.340;18.040;2024-01-30T13:49:22;8.47;;;7.27;;
12129;SDS011;6128;59.340;18.040;2024-01-30T13:51:49;7.20;;;6.50;;
12129;SDS011;6128;59.340;18.040;2024-01-30T13:54:16;8.93;;;7.40;;
12129;SDS011;6128;59.340;18.040;2024-01-30T13:56:43;7.83;;;6.67;;
12129;SDS011;6128;59.340;18.040;2024-01-30T13:59:10;8.73;;;6.53;;
12129;SDS011;6128;59.340;18.040;2024-01-30T14:01:37;9.27;;;7.13;;
12129;SDS011;6128;59.340;18.040;2024-01-30T14:04:05;6.83;;;6.13;;
12129;SDS011;6128;59.340;18.040;2024-01-30T14:06:32;10.30;;;6.93;;
12129;SDS011;6128;59.340;18.040;2024-01-30T14:08:59;7.50;;;6.70;;
12129;SDS011;6128;59.340;18.040;2024-01-30T14:11:27;7.20;;;6.20;;
12129;SDS011;6128;59.340;18.040;2024-01-30T14:13:54;7.20;;;6.50;;
12129;SDS011;6128;59.340;18.040;2024-01-30T14:16:21;7.30;;;6.43;;
12129;SDS011;6128;59.340;18.040;2024-01-30T14:18:49;7.70;;;6.60;;
12129;SDS011;6128;59.340;18.040;2024-01-30T14:21:18;8.20;;;6.60;;
12129;SDS011;6128;59.340;18.040;2024-01-30T14:23:45;8.33;;;6.80;;
12129;SDS011;6128;59.340;18.040;2024-01-30T14:26:12;6.90;;;6.13;;
12129;SDS011;6128;59.340;18.040;2024-01-30T14:28:39;8.23;;;6.80;;
12129;SDS011;6128;59.340;18.040;2024-01-30T14:31:06;8.23;;;6.77;;
12129;SDS011;6128;59.340;18.040;2024-01-30T14:33:33;9.37;;;7.30;;
12129;SDS011;6128;59.340;18.040;2024-01-30T14:36:00;8.20;;;6.87;;
12129;SDS011;6128;59.340;18.040;2024-01-30T14:38:29;7.90;;;6.90;;
12129;SDS011;6128;59.340;18.040;2024-01-30T14:40:56;8.63;;;7.30;;